createdAt,value
2022-10-29T00:00:22.765Z,1020.17
2022-10-29T00:01:22.414Z,1020.18
2022-10-29T00:02:22.282Z,1020.21
2022-10-29T00:03:22.350Z,1020.29
2022-10-29T00:04:22.255Z,1020.32
2022-10-29T00:05:22.238Z,1020.29
2022-10-29T00:06:22.280Z,1020.21
2022-10-29T00:07:22.253Z,1020.16
2022-10-29T00:08:22.208Z,1020.09
2022-10-29T00:09:22.232Z,1020.06
2022-10-29T00:10:22.200Z,1020.07
2022-10-29T00:11:22.157Z,1020.06
2022-10-29T00:12:22.188Z,1020.05
2022-10-29T00:13:22.204Z,1020.00
2022-10-29T00:14:22.117Z,1020.02
2022-10-29T00:15:22.106Z,1019.99
2022-10-29T00:16:22.164Z,1020.01
2022-10-29T00:17:22.079Z,1020.04
2022-10-29T00:18:22.086Z,1020.05
2022-10-29T00:19:22.072Z,1020.05
2022-10-29T00:20:22.064Z,1020.10
2022-10-29T00:21:22.037Z,1020.10
2022-10-29T00:22:22.073Z,1020.12
2022-10-29T00:23:22.012Z,1020.10
2022-10-29T00:24:21.963Z,1020.20
2022-10-29T00:25:21.979Z,1020.14
2022-10-29T00:26:21.987Z,1020.14
2022-10-29T00:27:21.962Z,1020.11
2022-10-29T00:28:21.979Z,1020.07
2022-10-29T00:29:21.916Z,1020.11
2022-10-29T00:30:21.904Z,1020.08
2022-10-29T00:31:21.894Z,1020.11
2022-10-29T00:32:21.862Z,1020.12
2022-10-29T00:33:21.882Z,1020.12
2022-10-29T00:34:21.867Z,1020.10
2022-10-29T00:35:21.832Z,1020.13
2022-10-29T00:36:21.878Z,1020.14
2022-10-29T00:37:21.780Z,1020.13
2022-10-29T00:38:21.766Z,1020.12
2022-10-29T00:39:21.795Z,1020.07
2022-10-29T00:40:21.797Z,1020.12
2022-10-29T00:41:21.788Z,1020.07
2022-10-29T00:42:21.788Z,1020.09
2022-10-29T00:43:21.744Z,1020.10
2022-10-29T00:44:21.712Z,1020.10
2022-10-29T00:45:21.700Z,1020.11
2022-10-29T00:46:21.687Z,1020.14
2022-10-29T00:47:21.679Z,1020.13
2022-10-29T00:48:21.669Z,1020.16
2022-10-29T00:49:21.619Z,1020.19
2022-10-29T00:50:21.620Z,1020.19
2022-10-29T00:51:21.618Z,1020.20
2022-10-29T00:52:21.605Z,1020.18
2022-10-29T00:53:21.638Z,1020.19
2022-10-29T00:54:21.567Z,1020.19
2022-10-29T00:55:21.587Z,1020.17
2022-10-29T00:56:21.563Z,1020.16
2022-10-29T00:57:21.535Z,1020.16
2022-10-29T00:58:21.506Z,1020.13
2022-10-29T00:59:21.518Z,1020.11
2022-10-29T01:00:21.489Z,1020.09
2022-10-29T01:01:21.563Z,1020.08
2022-10-29T01:02:21.630Z,1020.07
2022-10-29T01:03:21.483Z,1020.08
2022-10-29T01:04:21.476Z,1020.08
2022-10-29T01:05:21.465Z,1020.11
2022-10-29T01:06:21.406Z,1020.10
2022-10-29T01:07:21.428Z,1020.15
2022-10-29T01:08:21.368Z,1020.13
2022-10-29T01:09:21.386Z,1020.09
2022-10-29T01:10:21.396Z,1020.15
2022-10-29T01:11:21.327Z,1020.13
2022-10-29T01:12:21.340Z,1020.09
2022-10-29T01:13:21.306Z,1020.08
2022-10-29T01:14:21.297Z,1019.99
2022-10-29T01:15:21.282Z,1019.97
2022-10-29T01:16:21.347Z,1020.00
2022-10-29T01:17:21.265Z,1019.98
2022-10-29T01:18:21.289Z,1019.94
2022-10-29T01:19:21.278Z,1019.98
2022-10-29T01:20:21.250Z,1019.95
2022-10-29T01:21:21.218Z,1019.95
2022-10-29T01:22:21.240Z,1019.92
2022-10-29T01:23:21.179Z,1019.97
2022-10-29T01:24:21.212Z,1019.96
2022-10-29T01:25:21.148Z,1019.98
2022-10-29T01:26:21.156Z,1019.98
2022-10-29T01:27:21.127Z,1019.95
2022-10-29T01:28:21.146Z,1019.87
2022-10-29T01:29:21.123Z,1019.86
2022-10-29T01:30:21.144Z,1019.85
2022-10-29T01:31:21.074Z,1019.86
2022-10-29T01:32:21.068Z,1019.87
2022-10-29T01:33:21.097Z,1019.89
2022-10-29T01:34:21.072Z,1019.87
2022-10-29T01:35:21.037Z,1019.88
2022-10-29T01:36:20.993Z,1019.83
2022-10-29T01:37:21.068Z,1019.86
2022-10-29T01:38:20.977Z,1019.80
2022-10-29T01:39:20.982Z,1019.74
2022-10-29T01:40:20.955Z,1019.75
2022-10-29T01:41:20.985Z,1019.76
2022-10-29T01:42:20.935Z,1019.76
2022-10-29T01:43:20.921Z,1019.80
2022-10-29T01:44:20.950Z,1019.76
2022-10-29T01:45:20.882Z,1019.68
2022-10-29T01:46:20.897Z,1019.67
2022-10-29T01:47:20.868Z,1019.63
2022-10-29T01:48:20.875Z,1019.60
2022-10-29T01:49:20.867Z,1019.68
2022-10-29T01:50:20.834Z,1019.70
2022-10-29T01:51:20.877Z,1019.75
2022-10-29T01:52:20.801Z,1019.77
2022-10-29T01:53:20.811Z,1019.75
2022-10-29T01:54:20.798Z,1019.75
2022-10-29T01:55:20.762Z,1019.74
2022-10-29T01:56:20.737Z,1019.76
2022-10-29T01:57:20.711Z,1019.75
2022-10-29T01:58:20.723Z,1019.76
2022-10-29T01:59:35.338Z,1019.75
2022-10-29T02:00:21.746Z,1019.78
2022-10-29T02:01:20.810Z,1019.80
2022-10-29T02:02:20.630Z,1019.77
2022-10-29T02:03:20.684Z,1019.70
2022-10-29T02:04:20.644Z,1019.71
2022-10-29T02:05:20.633Z,1019.75
2022-10-29T02:06:20.620Z,1019.70
2022-10-29T02:07:20.566Z,1019.69
2022-10-29T02:08:20.567Z,1019.70
2022-10-29T02:09:20.592Z,1019.71
2022-10-29T02:10:20.565Z,1019.66
2022-10-29T02:11:20.542Z,1019.60
2022-10-29T02:12:20.541Z,1019.64
2022-10-29T02:13:20.525Z,1019.59
2022-10-29T02:14:20.476Z,1019.62
2022-10-29T02:15:20.479Z,1019.58
2022-10-29T02:16:20.460Z,1019.58
2022-10-29T02:17:20.504Z,1019.57
2022-10-29T02:18:20.422Z,1019.57
2022-10-29T02:19:20.440Z,1019.58
2022-10-29T02:20:20.418Z,1019.50
2022-10-29T02:21:20.393Z,1019.50
2022-10-29T02:22:20.386Z,1019.53
2022-10-29T02:23:20.367Z,1019.52
2022-10-29T02:24:20.370Z,1019.50
2022-10-29T02:25:20.443Z,1019.50
2022-10-29T02:26:20.366Z,1019.53
2022-10-29T02:27:20.334Z,1019.50
2022-10-29T02:29:20.301Z,1019.49
2022-10-29T02:30:20.331Z,1019.46
2022-10-29T02:31:20.248Z,1019.46
2022-10-29T02:32:20.268Z,1019.41
2022-10-29T02:33:20.225Z,1019.46
2022-10-29T02:34:20.233Z,1019.47
2022-10-29T02:35:20.284Z,1019.46
2022-10-29T02:36:20.181Z,1019.43
2022-10-29T02:37:20.301Z,1019.43
2022-10-29T02:38:20.183Z,1019.42
2022-10-29T02:39:20.203Z,1019.41
2022-10-29T02:40:20.181Z,1019.38
2022-10-29T02:41:20.149Z,1019.35
2022-10-29T02:42:20.132Z,1019.37
2022-10-29T02:44:20.127Z,1019.28
2022-10-29T02:45:20.108Z,1019.26
2022-10-29T02:46:20.091Z,1019.23
2022-10-29T02:47:20.074Z,1019.22
2022-10-29T02:48:20.025Z,1019.17
2022-10-29T02:49:20.035Z,1019.19
2022-10-29T02:50:20.009Z,1019.21
2022-10-29T02:51:20.014Z,1019.20
2022-10-29T02:52:19.986Z,1019.18
2022-10-29T02:53:19.958Z,1019.15
2022-10-29T02:54:19.959Z,1019.12
2022-10-29T02:55:19.984Z,1019.09
2022-10-29T02:56:19.924Z,1019.10
2022-10-29T02:57:19.959Z,1019.06
2022-10-29T02:59:19.871Z,1019.10
2022-10-29T03:00:19.917Z,1019.17
2022-10-29T03:01:19.990Z,1019.18
2022-10-29T03:02:19.925Z,1019.19
2022-10-29T03:03:19.825Z,1019.22
2022-10-29T03:04:19.843Z,1019.22
2022-10-29T03:05:19.814Z,1019.21
2022-10-29T03:06:19.838Z,1019.22
2022-10-29T03:07:19.788Z,1019.21
2022-10-29T03:08:19.793Z,1019.21
2022-10-29T03:09:19.762Z,1019.19
2022-10-29T03:10:19.733Z,1019.19
2022-10-29T03:11:19.745Z,1019.20
2022-10-29T03:12:19.708Z,1019.25
2022-10-29T03:13:19.700Z,1019.23
2022-10-29T03:14:19.695Z,1019.24
2022-10-29T03:15:19.703Z,1019.19
2022-10-29T03:16:19.639Z,1019.19
2022-10-29T03:17:19.640Z,1019.22
2022-10-29T03:18:19.670Z,1019.23
2022-10-29T03:19:19.623Z,1019.19
2022-10-29T03:20:19.636Z,1019.20
2022-10-29T03:21:19.667Z,1019.18
2022-10-29T03:22:19.619Z,1019.16
2022-10-29T03:23:19.576Z,1019.13
2022-10-29T03:24:19.581Z,1019.12
2022-10-29T03:25:19.559Z,1019.09
2022-10-29T03:26:19.508Z,1019.11
2022-10-29T03:27:19.561Z,1019.10
2022-10-29T03:28:19.522Z,1019.17
2022-10-29T03:29:19.510Z,1019.16
2022-10-29T03:30:19.517Z,1019.11
2022-10-29T03:31:19.472Z,1019.13
2022-10-29T03:32:19.442Z,1019.12
2022-10-29T03:33:19.481Z,1019.12
2022-10-29T03:34:27.053Z,1019.13
2022-10-29T03:35:19.361Z,1019.13
2022-10-29T03:36:19.446Z,1019.13
2022-10-29T03:37:19.373Z,1019.17
2022-10-29T03:38:19.395Z,1019.14
2022-10-29T03:39:19.311Z,1019.09
2022-10-29T03:40:19.326Z,1019.15
2022-10-29T03:41:19.297Z,1019.10
2022-10-29T03:42:19.254Z,1019.07
2022-10-29T03:43:19.279Z,1019.07
2022-10-29T03:44:19.289Z,1019.08
2022-10-29T03:45:19.227Z,1019.09
2022-10-29T03:46:19.229Z,1019.04
2022-10-29T03:47:19.214Z,1019.04
2022-10-29T03:48:19.215Z,1019.10
2022-10-29T03:49:19.185Z,1019.08
2022-10-29T03:50:19.178Z,1019.08
2022-10-29T03:51:19.164Z,1019.06
2022-10-29T03:52:19.147Z,1019.02
2022-10-29T03:53:19.149Z,1019.06
2022-10-29T03:54:19.094Z,1019.06
2022-10-29T03:55:19.108Z,1019.08
2022-10-29T03:56:19.105Z,1019.09
2022-10-29T03:57:19.097Z,1019.13
2022-10-29T03:58:19.099Z,1019.12
2022-10-29T03:59:19.034Z,1019.08
2022-10-29T04:00:19.036Z,1019.13
2022-10-29T04:01:19.103Z,1019.09
2022-10-29T04:02:19.078Z,1019.10
2022-10-29T04:03:19.017Z,1019.15
2022-10-29T04:04:18.991Z,1019.10
2022-10-29T04:05:18.972Z,1019.12
2022-10-29T04:06:18.968Z,1019.12
2022-10-29T04:07:18.939Z,1019.09
2022-10-29T04:08:18.975Z,1019.05
2022-10-29T04:09:18.913Z,1019.03
2022-10-29T04:10:18.886Z,1018.99
2022-10-29T04:11:18.890Z,1018.99
2022-10-29T04:12:18.863Z,1018.97
2022-10-29T04:13:18.852Z,1018.89
2022-10-29T04:14:18.849Z,1018.86
2022-10-29T04:15:18.820Z,1018.86
2022-10-29T04:16:18.825Z,1018.83
2022-10-29T04:17:18.813Z,1018.81
2022-10-29T04:18:18.789Z,1018.80
2022-10-29T04:19:18.780Z,1018.82
2022-10-29T04:20:41.869Z,1018.80
2022-10-29T04:28:28.961Z,1018.85
2022-10-29T04:29:19.675Z,1018.76
2022-10-29T04:30:18.635Z,1018.74
2022-10-29T04:31:18.633Z,1018.73
2022-10-29T04:32:18.604Z,1018.68
2022-10-29T04:33:18.591Z,1018.75
2022-10-29T04:34:18.580Z,1018.76
2022-10-29T04:35:18.604Z,1018.78
2022-10-29T04:36:18.542Z,1018.90
2022-10-29T04:37:18.544Z,1018.93
2022-10-29T04:38:18.556Z,1018.96
2022-10-29T04:39:21.008Z,1018.94
2022-10-29T04:40:19.549Z,1018.94
2022-10-29T04:41:18.566Z,1018.94
2022-10-29T04:42:18.480Z,1018.92
2022-10-29T04:43:18.445Z,1018.92
2022-10-29T04:44:18.466Z,1018.88
2022-10-29T04:45:18.498Z,1018.88
2022-10-29T04:46:18.411Z,1018.84
2022-10-29T04:47:18.449Z,1018.83
2022-10-29T04:48:18.378Z,1018.80
2022-10-29T04:49:18.439Z,1018.73
2022-10-29T04:50:18.421Z,1018.72
2022-10-29T04:51:18.332Z,1018.69
2022-10-29T04:52:19.017Z,1018.68
2022-10-29T04:53:18.663Z,1018.66
2022-10-29T04:54:18.301Z,1018.68
2022-10-29T04:55:18.299Z,1018.62
2022-10-29T04:56:18.294Z,1018.60
2022-10-29T04:57:18.334Z,1018.63
2022-10-29T04:58:18.334Z,1018.59
2022-10-29T04:59:18.245Z,1018.56
2022-10-29T05:00:18.965Z,1018.54
2022-10-29T05:01:18.312Z,1018.50
2022-10-29T05:02:18.180Z,1018.48
2022-10-29T05:03:18.215Z,1018.47
2022-10-29T05:04:18.164Z,1018.51
2022-10-29T05:05:18.152Z,1018.55
2022-10-29T05:06:18.132Z,1018.53
2022-10-29T05:07:18.129Z,1018.51
2022-10-29T05:08:18.145Z,1018.46
2022-10-29T05:09:18.103Z,1018.47
2022-10-29T05:10:18.118Z,1018.43
2022-10-29T05:11:18.088Z,1018.46
2022-10-29T05:12:18.078Z,1018.43
2022-10-29T05:13:18.076Z,1018.39
2022-10-29T05:14:18.058Z,1018.41
2022-10-29T05:15:18.063Z,1018.41
2022-10-29T05:16:18.013Z,1018.41
2022-10-29T05:17:18.003Z,1018.33
2022-10-29T05:18:18.005Z,1018.33
2022-10-29T05:19:17.982Z,1018.29
2022-10-29T05:20:17.959Z,1018.30
2022-10-29T05:21:17.945Z,1018.30
2022-10-29T05:22:17.925Z,1018.33
2022-10-29T05:23:17.918Z,1018.37
2022-10-29T05:24:17.893Z,1018.43
2022-10-29T05:25:17.943Z,1018.39
2022-10-29T05:26:17.865Z,1018.37
2022-10-29T05:27:17.866Z,1018.36
2022-10-29T05:28:17.829Z,1018.35
2022-10-29T05:29:17.854Z,1018.31
2022-10-29T05:30:17.828Z,1018.29
2022-10-29T05:31:17.844Z,1018.28
2022-10-29T05:32:17.781Z,1018.27
2022-10-29T05:33:17.821Z,1018.26
2022-10-29T05:34:17.817Z,1018.29
2022-10-29T05:35:17.790Z,1018.33
2022-10-29T05:36:17.878Z,1018.33
2022-10-29T05:37:17.770Z,1018.32
2022-10-29T05:38:17.696Z,1018.29
2022-10-29T05:39:17.716Z,1018.24
2022-10-29T05:40:17.701Z,1018.19
2022-10-29T05:41:17.674Z,1018.20
2022-10-29T05:42:17.641Z,1018.23
2022-10-29T05:43:17.638Z,1018.24
2022-10-29T05:44:17.656Z,1018.28
2022-10-29T05:45:17.634Z,1018.27
2022-10-29T05:46:17.613Z,1018.24
2022-10-29T05:47:17.588Z,1018.25
2022-10-29T05:48:17.622Z,1018.23
2022-10-29T05:49:17.591Z,1018.25
2022-10-29T05:50:17.543Z,1018.20
2022-10-29T05:51:17.547Z,1018.19
2022-10-29T05:52:17.555Z,1018.19
2022-10-29T05:53:17.517Z,1018.21
2022-10-29T05:54:17.494Z,1018.16
2022-10-29T05:55:17.557Z,1018.20
2022-10-29T05:56:17.470Z,1018.24
2022-10-29T05:57:17.451Z,1018.22
2022-10-29T05:58:17.446Z,1018.22
2022-10-29T05:59:17.434Z,1018.18
2022-10-29T06:00:17.426Z,1018.21
2022-10-29T06:01:17.426Z,1018.19
2022-10-29T06:02:17.471Z,1018.15
2022-10-29T06:03:17.418Z,1018.17
2022-10-29T06:04:17.379Z,1018.14
2022-10-29T06:05:17.355Z,1018.16
2022-10-29T06:06:17.463Z,1018.20
2022-10-29T06:07:17.334Z,1018.19
2022-10-29T06:08:17.305Z,1018.21
2022-10-29T06:09:17.305Z,1018.21
2022-10-29T06:10:17.290Z,1018.17
2022-10-29T06:11:17.258Z,1018.13
2022-10-29T06:12:17.298Z,1018.13
2022-10-29T06:13:17.245Z,1018.14
2022-10-29T06:14:17.233Z,1018.18
2022-10-29T06:15:17.219Z,1018.12
2022-10-29T06:16:17.219Z,1018.15
2022-10-29T06:17:17.228Z,1018.11
2022-10-29T06:18:17.196Z,1018.13
2022-10-29T06:19:17.527Z,1018.17
2022-10-29T06:20:17.201Z,1018.16
2022-10-29T06:21:17.164Z,1018.18
2022-10-29T06:22:17.209Z,1018.18
2022-10-29T06:23:17.115Z,1018.18
2022-10-29T06:24:17.083Z,1018.16
2022-10-29T06:25:17.094Z,1018.16
2022-10-29T06:26:17.136Z,1018.13
2022-10-29T06:27:17.078Z,1018.11
2022-10-29T06:28:17.036Z,1018.12
2022-10-29T06:29:17.315Z,1018.13
2022-10-29T06:30:16.994Z,1018.08
2022-10-29T06:31:17.078Z,1018.08
2022-10-29T06:32:16.979Z,1018.05
2022-10-29T06:33:16.983Z,1018.10
2022-10-29T06:34:16.962Z,1018.12
2022-10-29T06:35:16.982Z,1018.13
2022-10-29T06:36:16.951Z,1018.10
2022-10-29T06:37:16.921Z,1018.14
2022-10-29T06:38:16.924Z,1018.16
2022-10-29T06:39:16.889Z,1018.18
2022-10-29T06:40:16.890Z,1018.17
2022-10-29T06:41:16.864Z,1018.13
2022-10-29T06:42:16.886Z,1018.17
2022-10-29T06:43:16.999Z,1018.19
2022-10-29T06:44:16.834Z,1018.20
2022-10-29T06:45:16.809Z,1018.18
2022-10-29T06:46:16.827Z,1018.20
2022-10-29T06:47:16.831Z,1018.16
2022-10-29T06:48:21.773Z,1018.15
2022-10-29T06:49:17.780Z,1018.15
2022-10-29T06:50:16.755Z,1018.17
2022-10-29T06:51:16.816Z,1018.14
2022-10-29T06:52:17.117Z,1018.14
2022-10-29T06:53:16.699Z,1018.13
2022-10-29T06:54:16.695Z,1018.15
2022-10-29T06:55:16.717Z,1018.13
2022-10-29T06:56:16.710Z,1018.13
2022-10-29T06:57:16.699Z,1018.10
2022-10-29T06:58:16.651Z,1018.11
2022-10-29T06:59:16.634Z,1018.11
2022-10-29T07:00:16.635Z,1018.11
2022-10-29T07:01:16.873Z,1018.13
2022-10-29T07:02:16.714Z,1018.16
2022-10-29T07:03:16.578Z,1018.09
2022-10-29T07:04:16.688Z,1018.07
2022-10-29T07:05:16.563Z,1018.05
2022-10-29T07:06:16.567Z,1018.09
2022-10-29T07:07:16.614Z,1018.07
2022-10-29T07:08:16.520Z,1018.09
2022-10-29T07:09:16.513Z,1018.05
2022-10-29T07:10:16.541Z,1018.06
2022-10-29T07:11:16.468Z,1017.99
2022-10-29T07:12:16.483Z,1018.00
2022-10-29T07:13:16.454Z,1017.94
2022-10-29T07:14:16.425Z,1017.98
2022-10-29T07:15:17.336Z,1017.98
2022-10-29T07:16:16.511Z,1018.02
2022-10-29T07:17:16.390Z,1018.00
2022-10-29T07:18:16.454Z,1018.04
2022-10-29T07:19:16.353Z,1018.08
2022-10-29T07:20:16.333Z,1018.08
2022-10-29T07:21:16.355Z,1018.07
2022-10-29T07:22:16.302Z,1018.06
2022-10-29T07:23:16.372Z,1018.06
2022-10-29T07:24:16.294Z,1018.12
2022-10-29T07:25:16.263Z,1018.08
2022-10-29T07:26:16.282Z,1018.11
2022-10-29T07:27:16.294Z,1018.13
2022-10-29T07:28:16.279Z,1018.14
2022-10-29T07:29:16.224Z,1018.17
2022-10-29T07:30:16.208Z,1018.17
2022-10-29T07:31:16.239Z,1018.20
2022-10-29T07:32:16.178Z,1018.10
2022-10-29T07:33:16.169Z,1018.10
2022-10-29T07:34:17.107Z,1018.11
2022-10-29T07:35:16.182Z,1018.11
2022-10-29T07:36:16.161Z,1018.11
2022-10-29T07:37:16.124Z,1018.16
2022-10-29T07:38:16.108Z,1018.16
2022-10-29T07:39:16.174Z,1018.19
2022-10-29T07:40:16.159Z,1018.22
2022-10-29T07:41:16.712Z,1018.26
2022-10-29T07:42:16.187Z,1018.30
2022-10-29T07:43:16.051Z,1018.37
2022-10-29T07:44:16.040Z,1018.34
2022-10-29T07:45:16.035Z,1018.32
2022-10-29T07:46:16.004Z,1018.33
2022-10-29T07:47:16.006Z,1018.28
2022-10-29T07:48:16.067Z,1018.29
2022-10-29T07:49:15.983Z,1018.30
2022-10-29T07:50:15.976Z,1018.31
2022-10-29T07:51:15.951Z,1018.37
2022-10-29T07:52:15.972Z,1018.45
2022-10-29T07:53:15.964Z,1018.44
2022-10-29T07:54:15.904Z,1018.45
2022-10-29T07:55:15.890Z,1018.40
2022-10-29T07:56:15.886Z,1018.39
2022-10-29T07:57:15.855Z,1018.41
2022-10-29T07:58:15.845Z,1018.41
2022-10-29T07:59:15.839Z,1018.44
2022-10-29T08:00:15.815Z,1018.42
2022-10-29T08:01:15.865Z,1018.44
2022-10-29T08:02:15.887Z,1018.42
2022-10-29T08:03:15.775Z,1018.40
2022-10-29T08:04:15.760Z,1018.35
2022-10-29T08:05:15.737Z,1018.36
2022-10-29T08:06:15.727Z,1018.36
2022-10-29T08:07:15.913Z,1018.29
2022-10-29T08:08:15.756Z,1018.28
2022-10-29T08:09:15.756Z,1018.23
2022-10-29T08:10:15.690Z,1018.30
2022-10-29T08:11:15.660Z,1018.28
2022-10-29T08:12:15.654Z,1018.25
2022-10-29T08:13:15.641Z,1018.27
2022-10-29T08:14:17.775Z,1018.26
2022-10-29T08:15:15.605Z,1018.27
2022-10-29T08:16:15.699Z,1018.30
2022-10-29T08:17:15.627Z,1018.31
2022-10-29T08:18:15.630Z,1018.30
2022-10-29T08:19:15.559Z,1018.28
2022-10-29T08:20:15.563Z,1018.27
2022-10-29T08:21:15.538Z,1018.27
2022-10-29T08:22:15.549Z,1018.24
2022-10-29T08:23:15.601Z,1018.24
2022-10-29T08:24:15.495Z,1018.26
2022-10-29T08:25:15.533Z,1018.25
2022-10-29T08:26:15.516Z,1018.28
2022-10-29T08:27:15.470Z,1018.29
2022-10-29T08:28:15.580Z,1018.27
2022-10-29T08:29:15.623Z,1018.24
2022-10-29T08:30:15.534Z,1018.23
2022-10-29T08:31:15.487Z,1018.25
2022-10-29T08:32:15.372Z,1018.33
2022-10-29T08:33:15.365Z,1018.31
2022-10-29T08:34:15.344Z,1018.24
2022-10-29T08:35:15.347Z,1018.20
2022-10-29T08:36:15.357Z,1018.17
2022-10-29T08:37:15.423Z,1018.15
2022-10-29T08:38:15.320Z,1018.16
2022-10-29T08:39:15.383Z,1018.19
2022-10-29T08:40:16.246Z,1018.12
2022-10-29T08:41:15.598Z,1018.07
2022-10-29T08:42:15.305Z,1018.00
2022-10-29T08:43:15.258Z,1018.03
2022-10-29T08:44:15.260Z,1018.02
2022-10-29T08:45:15.223Z,1018.00
2022-10-29T08:46:15.215Z,1018.01
2022-10-29T08:47:15.202Z,1017.95
2022-10-29T08:48:15.174Z,1017.94
2022-10-29T08:49:15.153Z,1017.91
2022-10-29T08:50:15.172Z,1017.89
2022-10-29T08:51:15.212Z,1017.85
2022-10-29T08:52:15.125Z,1017.86
2022-10-29T08:53:23.713Z,1017.89
2022-10-29T08:54:32.364Z,1017.87
2022-10-29T08:55:16.077Z,1017.86
2022-10-29T08:56:15.069Z,1017.84
2022-10-29T08:57:15.089Z,1017.82
2022-10-29T08:58:15.117Z,1017.87
2022-10-29T08:59:15.047Z,1017.90
2022-10-29T09:00:15.010Z,1017.91
2022-10-29T09:01:15.096Z,1017.93
2022-10-29T09:02:15.034Z,1017.90
2022-10-29T09:03:14.985Z,1017.91
2022-10-29T09:04:15.027Z,1017.90
2022-10-29T09:05:15.020Z,1017.95
2022-10-29T09:06:14.970Z,1017.94
2022-10-29T09:07:14.920Z,1017.92
2022-10-29T09:08:14.906Z,1017.88
2022-10-29T09:09:14.879Z,1017.90
2022-10-29T09:10:14.876Z,1017.90
2022-10-29T09:11:14.990Z,1017.93
2022-10-29T09:12:24.880Z,1017.91
2022-10-29T09:13:14.835Z,1017.88
2022-10-29T09:14:14.968Z,1017.81
2022-10-29T09:15:17.196Z,1017.83
2022-10-29T09:16:14.957Z,1017.84
2022-10-29T09:17:15.726Z,1017.81
2022-10-29T09:18:16.035Z,1017.85
2022-10-29T09:19:15.364Z,1017.86
2022-10-29T09:20:14.834Z,1017.92
2022-10-29T09:21:15.155Z,1017.93
2022-10-29T09:22:14.975Z,1017.90
2022-10-29T09:23:14.771Z,1017.84
2022-10-29T09:24:14.913Z,1017.85
2022-10-29T09:25:18.779Z,1017.89
2022-10-29T09:26:14.984Z,1017.89
2022-10-29T09:27:15.397Z,1017.89
2022-10-29T09:28:15.226Z,1017.86
2022-10-29T09:29:14.677Z,1017.83
2022-10-29T09:30:14.591Z,1017.83
2022-10-29T09:31:14.575Z,1017.84
2022-10-29T09:32:14.673Z,1017.87
2022-10-29T09:33:14.553Z,1017.83
2022-10-29T09:34:14.565Z,1017.81
2022-10-29T09:35:14.509Z,1017.81
2022-10-29T09:36:14.499Z,1017.81
2022-10-29T09:37:14.489Z,1017.78
2022-10-29T09:38:14.541Z,1017.75
2022-10-29T09:39:14.542Z,1017.78
2022-10-29T09:40:14.461Z,1017.79
2022-10-29T09:41:14.643Z,1017.83
2022-10-29T09:42:14.542Z,1017.86
2022-10-29T09:43:14.500Z,1017.79
2022-10-29T09:44:14.429Z,1017.79
2022-10-29T09:45:14.384Z,1017.79
2022-10-29T09:46:14.434Z,1017.71
2022-10-29T09:47:14.389Z,1017.69
2022-10-29T09:48:23.092Z,1017.66
2022-10-29T09:49:14.325Z,1017.63
2022-10-29T09:50:14.352Z,1017.61
2022-10-29T09:51:14.314Z,1017.62
2022-10-29T09:52:14.309Z,1017.66
2022-10-29T09:53:14.289Z,1017.63
2022-10-29T09:54:14.325Z,1017.62
2022-10-29T09:55:14.289Z,1017.62
2022-10-29T09:56:14.257Z,1017.57
2022-10-29T09:57:14.249Z,1017.53
2022-10-29T09:58:14.229Z,1017.49
2022-10-29T09:59:14.208Z,1017.49
2022-10-29T10:00:14.217Z,1017.51
2022-10-29T10:01:14.279Z,1017.48
2022-10-29T10:02:14.245Z,1017.47
2022-10-29T10:03:14.247Z,1017.50
2022-10-29T10:04:14.156Z,1017.54
2022-10-29T10:05:14.134Z,1017.58
2022-10-29T10:06:14.139Z,1017.52
2022-10-29T10:07:14.091Z,1017.47
2022-10-29T10:08:14.111Z,1017.49
2022-10-29T10:09:14.115Z,1017.46
2022-10-29T10:10:14.071Z,1017.48
2022-10-29T10:11:14.084Z,1017.48
2022-10-29T10:12:14.039Z,1017.50
2022-10-29T10:13:17.072Z,1017.51
2022-10-29T10:14:14.057Z,1017.52
2022-10-29T10:15:14.028Z,1017.59
2022-10-29T10:16:13.999Z,1017.62
2022-10-29T10:17:13.974Z,1017.57
2022-10-29T10:18:13.970Z,1017.63
2022-10-29T10:19:14.000Z,1017.58
2022-10-29T10:20:14.017Z,1017.60
2022-10-29T10:21:13.932Z,1017.60
2022-10-29T10:22:16.255Z,1017.59
2022-10-29T10:23:13.911Z,1017.54
2022-10-29T10:24:13.945Z,1017.47
2022-10-29T10:25:13.897Z,1017.45
2022-10-29T10:26:13.868Z,1017.40
2022-10-29T10:27:13.850Z,1017.38
2022-10-29T10:28:13.841Z,1017.34
2022-10-29T10:29:13.844Z,1017.33
2022-10-29T10:30:13.808Z,1017.30
2022-10-29T10:31:13.784Z,1017.31
2022-10-29T10:32:13.853Z,1017.33
2022-10-29T10:33:13.866Z,1017.32
2022-10-29T10:34:13.746Z,1017.36
2022-10-29T10:35:13.773Z,1017.36
2022-10-29T10:36:13.711Z,1017.37
2022-10-29T10:37:13.716Z,1017.37
2022-10-29T10:38:13.717Z,1017.37
2022-10-29T10:39:13.792Z,1017.33
2022-10-29T10:40:13.666Z,1017.30
2022-10-29T10:41:14.381Z,1017.29
2022-10-29T10:42:14.686Z,1017.29
2022-10-29T10:43:13.650Z,1017.29
2022-10-29T10:44:13.650Z,1017.29
2022-10-29T10:45:13.626Z,1017.32
2022-10-29T10:46:13.587Z,1017.27
2022-10-29T10:47:13.863Z,1017.19
2022-10-29T10:48:13.632Z,1017.20
2022-10-29T10:49:13.559Z,1017.22
2022-10-29T10:50:13.539Z,1017.22
2022-10-29T10:51:13.529Z,1017.19
2022-10-29T10:52:13.504Z,1017.18
2022-10-29T10:53:13.503Z,1017.19
2022-10-29T10:54:13.572Z,1017.19
2022-10-29T10:55:13.464Z,1017.22
2022-10-29T10:56:13.474Z,1017.27
2022-10-29T10:57:13.465Z,1017.27
2022-10-29T10:58:13.476Z,1017.26
2022-10-29T10:59:13.447Z,1017.29
2022-10-29T11:00:13.430Z,1017.28
2022-10-29T11:01:13.451Z,1017.24
2022-10-29T11:02:13.413Z,1017.26
2022-10-29T11:03:13.451Z,1017.25
2022-10-29T11:04:13.400Z,1017.27
2022-10-29T11:05:13.348Z,1017.22
2022-10-29T11:06:13.338Z,1017.24
2022-10-29T11:07:13.290Z,1017.20
2022-10-29T11:08:13.289Z,1017.18
2022-10-29T11:09:13.278Z,1017.15
2022-10-29T11:10:13.296Z,1017.07
2022-10-29T11:11:13.270Z,1017.10
2022-10-29T11:12:13.241Z,1017.08
2022-10-29T11:13:13.266Z,1017.13
2022-10-29T11:14:13.234Z,1017.11
2022-10-29T11:15:13.207Z,1017.09
2022-10-29T11:16:13.230Z,1017.04
2022-10-29T11:17:13.165Z,1017.01
2022-10-29T11:18:13.208Z,1017.03
2022-10-29T11:19:13.140Z,1017.05
2022-10-29T11:20:13.135Z,1017.05
2022-10-29T11:21:13.134Z,1017.09
2022-10-29T11:22:13.249Z,1017.05
2022-10-29T11:23:13.086Z,1017.09
2022-10-29T11:24:13.075Z,1017.09
2022-10-29T11:25:13.077Z,1017.18
2022-10-29T11:26:13.043Z,1017.14
2022-10-29T11:27:13.044Z,1017.14
2022-10-29T11:28:13.112Z,1017.17
2022-10-29T11:29:12.983Z,1017.18
2022-10-29T11:30:13.031Z,1017.14
2022-10-29T11:31:20.684Z,1017.13
2022-10-29T11:32:12.957Z,1017.14
2022-10-29T11:33:12.937Z,1017.11
2022-10-29T11:34:12.943Z,1017.13
2022-10-29T11:35:12.924Z,1017.12
2022-10-29T11:36:12.918Z,1017.11
2022-10-29T11:37:20.944Z,1017.10
2022-10-29T11:38:12.883Z,1017.10
2022-10-29T11:39:12.876Z,1017.08
2022-10-29T11:40:12.871Z,1017.09
2022-10-29T11:41:12.972Z,1017.10
2022-10-29T11:42:12.877Z,1017.12
2022-10-29T11:43:12.848Z,1017.08
2022-10-29T11:44:12.811Z,1017.06
2022-10-29T11:45:12.788Z,1017.04
2022-10-29T11:46:12.773Z,1016.97
2022-10-29T11:47:20.282Z,1016.97
2022-10-29T11:48:22.038Z,1016.98
2022-10-29T11:49:12.719Z,1016.99
2022-10-29T11:50:12.805Z,1016.97
2022-10-29T11:51:12.710Z,1016.95
2022-10-29T11:52:12.737Z,1016.93
2022-10-29T11:53:12.720Z,1016.93
2022-10-29T11:54:22.422Z,1016.93
2022-10-29T11:55:12.648Z,1016.89
2022-10-29T11:56:12.645Z,1016.87
2022-10-29T11:57:12.619Z,1016.87
2022-10-29T11:58:12.633Z,1016.87
2022-10-29T11:59:12.638Z,1016.88
2022-10-29T12:00:12.676Z,1016.91
2022-10-29T12:01:12.632Z,1016.89
2022-10-29T12:02:12.583Z,1016.89
2022-10-29T12:03:12.556Z,1016.91
2022-10-29T12:04:12.574Z,1016.90
2022-10-29T12:05:12.573Z,1016.88
2022-10-29T12:06:12.566Z,1016.88
2022-10-29T12:07:12.506Z,1016.89
2022-10-29T12:08:12.523Z,1016.90
2022-10-29T12:09:12.524Z,1016.90
2022-10-29T12:10:12.579Z,1016.89
2022-10-29T12:11:12.504Z,1016.88
2022-10-29T12:12:12.441Z,1016.91
2022-10-29T12:13:12.424Z,1016.85
2022-10-29T12:14:12.414Z,1016.88
2022-10-29T12:15:12.506Z,1016.85